createdAt,value
2022-10-11T00:00:14.941Z,99.90
2022-10-11T00:05:17.396Z,99.90
2022-10-11T00:10:19.840Z,99.90
2022-10-11T00:15:22.487Z,99.90
2022-10-11T00:20:24.801Z,99.90
2022-10-11T00:25:26.588Z,99.90
2022-10-11T00:30:28.349Z,99.90
2022-10-11T00:35:30.137Z,99.90
2022-10-11T00:40:31.913Z,99.90
2022-10-11T00:45:33.637Z,99.90
2022-10-11T00:50:36.480Z,99.90
2022-10-11T00:55:49.101Z,99.90
2022-10-11T01:00:51.259Z,99.90
2022-10-11T01:05:53.525Z,99.90
2022-10-11T01:10:56.132Z,99.90
2022-10-11T01:16:24.417Z,99.90
2022-10-11T01:21:28.914Z,99.90
2022-10-11T01:26:45.588Z,99.90
2022-10-11T01:32:27.154Z,99.90
2022-10-11T01:37:46.200Z,99.90
2022-10-11T01:42:49.087Z,99.90
2022-10-11T01:48:11.572Z,99.90
2022-10-11T01:53:19.207Z,99.90
2022-10-11T01:58:51.385Z,99.90
2022-10-11T02:04:04.900Z,99.90
2022-10-11T02:09:16.115Z,99.90
2022-10-11T02:14:22.841Z,99.90
2022-10-11T02:19:29.820Z,99.90
2022-10-11T02:24:35.240Z,99.90
2022-10-11T02:29:39.885Z,99.90
2022-10-11T02:34:48.892Z,99.90
2022-10-11T02:40:17.086Z,99.90
2022-10-11T02:45:34.435Z,99.90
2022-10-11T02:50:40.235Z,99.90
2022-10-11T02:55:42.021Z,99.90
2022-10-11T03:00:44.976Z,99.90
2022-10-11T03:05:46.802Z,99.90
2022-10-11T03:10:48.558Z,99.90
2022-10-11T03:16:02.376Z,99.90
2022-10-11T03:21:09.400Z,99.90
2022-10-11T03:26:11.253Z,99.90
2022-10-11T03:31:13.041Z,99.90
2022-10-11T03:36:14.969Z,99.90
2022-10-11T03:41:16.761Z,99.90
2022-10-11T03:46:20.400Z,99.90
2022-10-11T03:51:22.176Z,99.90
2022-10-11T03:56:24.026Z,99.90
2022-10-11T04:01:25.927Z,99.90
2022-10-11T04:06:27.753Z,99.90
2022-10-11T04:11:29.488Z,99.90
2022-10-11T04:16:31.435Z,99.90
2022-10-11T04:21:33.575Z,99.90
2022-10-11T04:26:35.404Z,99.90
2022-10-11T04:31:37.167Z,99.90
2022-10-11T04:36:39.163Z,99.90
2022-10-11T04:41:40.972Z,99.90
2022-10-11T04:46:42.732Z,99.90
2022-10-11T04:51:44.584Z,99.90
2022-10-11T04:56:46.356Z,99.90
2022-10-11T05:01:48.138Z,99.90
2022-10-11T05:06:50.034Z,99.90
2022-10-11T05:11:51.774Z,99.90
2022-10-11T05:16:53.526Z,99.90
2022-10-11T05:21:55.381Z,99.90
2022-10-11T05:27:02.328Z,99.90
2022-10-11T05:32:05.260Z,99.90
2022-10-11T05:37:07.038Z,99.90
2022-10-11T05:42:10.155Z,99.90
2022-10-11T05:47:12.054Z,99.90
2022-10-11T05:52:13.843Z,99.90
2022-10-11T05:57:15.671Z,99.90
2022-10-11T06:02:17.398Z,99.90
2022-10-11T06:07:19.125Z,99.90
2022-10-11T06:12:21.654Z,99.90
2022-10-11T06:17:24.004Z,99.90
2022-10-11T06:22:26.632Z,99.90
2022-10-11T06:27:28.401Z,99.90
2022-10-11T06:32:30.242Z,99.90
2022-10-11T06:37:32.128Z,99.90
2022-10-11T06:42:33.900Z,99.90
2022-10-11T06:47:35.756Z,99.90
2022-10-11T06:52:37.582Z,99.90
2022-10-11T06:57:39.796Z,99.90
2022-10-11T07:02:41.682Z,99.90
2022-10-11T07:07:44.270Z,99.90
2022-10-11T07:12:46.002Z,99.90
2022-10-11T07:17:47.733Z,99.90
2022-10-11T07:22:49.446Z,99.90
2022-10-11T07:27:51.169Z,99.00
2022-10-11T07:32:52.917Z,99.10
2022-10-11T07:37:55.016Z,97.60
2022-10-11T07:42:58.113Z,95.10
2022-10-11T07:47:59.873Z,95.20
2022-10-11T07:53:01.674Z,98.20
2022-10-11T07:58:03.460Z,99.90
2022-10-11T08:03:09.426Z,99.90
2022-10-11T08:08:11.292Z,99.60
2022-10-11T08:13:13.311Z,96.60
2022-10-11T08:18:15.306Z,93.40
2022-10-11T08:23:18.302Z,92.10
2022-10-11T08:28:20.921Z,90.20
2022-10-11T08:33:25.589Z,91.40
2022-10-11T08:38:27.348Z,91.10
2022-10-11T08:43:44.223Z,89.10
2022-10-11T08:48:49.054Z,87.10
2022-10-11T08:54:07.773Z,85.50
2022-10-11T08:59:12.981Z,86.30
2022-10-11T09:04:16.335Z,83.20
2022-10-11T09:09:24.183Z,81.90
2022-10-11T09:14:52.375Z,82.20
2022-10-11T09:20:41.464Z,83.50
2022-10-11T09:25:55.188Z,82.50
2022-10-11T09:30:58.683Z,81.90
2022-10-11T09:36:01.794Z,83.10
2022-10-11T09:41:18.503Z,83.60
2022-10-11T09:46:24.770Z,83.40
2022-10-11T09:51:28.006Z,82.90
2022-10-11T09:56:31.615Z,83.70
2022-10-11T10:01:33.619Z,80.30
2022-10-11T10:06:35.585Z,81.50
2022-10-11T10:11:37.806Z,86.40
2022-10-11T10:16:39.622Z,87.80
2022-10-11T10:21:53.167Z,88.30
2022-10-11T10:27:14.215Z,89.30
2022-10-11T10:32:34.434Z,91.90
2022-10-11T10:37:49.687Z,92.20
2022-10-11T10:42:51.518Z,91.40
2022-10-11T10:48:02.977Z,91.10
2022-10-11T10:53:29.093Z,90.60
2022-10-11T10:58:36.615Z,91.20
2022-10-11T11:03:53.553Z,89.20
2022-10-11T11:09:05.614Z,87.40
2022-10-11T11:14:32.001Z,86.00
2022-10-11T11:19:48.959Z,87.00
2022-10-11T11:24:56.768Z,87.40
2022-10-11T11:30:08.470Z,86.10
2022-10-11T11:35:32.808Z,88.50
2022-10-11T11:40:40.640Z,88.80
2022-10-11T11:45:55.352Z,88.90
2022-10-11T11:51:06.629Z,87.40
2022-10-11T11:56:41.998Z,90.20
2022-10-11T12:01:56.066Z,90.60
2022-10-11T12:07:18.573Z,89.80
2022-10-11T12:12:34.360Z,87.40
2022-10-11T12:17:56.031Z,90.50
2022-10-11T12:23:03.912Z,89.50
2022-10-11T12:28:36.859Z,88.50
2022-10-11T12:33:38.643Z,85.00
2022-10-11T12:38:42.017Z,90.10
2022-10-11T12:43:49.692Z,90.80
2022-10-11T12:48:58.672Z,92.80
2022-10-11T12:54:37.254Z,92.70
2022-10-11T12:59:44.247Z,92.60
2022-10-11T13:04:46.102Z,90.90
2022-10-11T13:09:49.224Z,90.50
2022-10-11T13:15:04.316Z,90.80
2022-10-11T13:20:15.717Z,91.60
2022-10-11T13:25:30.134Z,92.30
2022-10-11T13:30:34.325Z,93.10
2022-10-11T13:35:38.229Z,92.90
2022-10-11T13:40:40.037Z,93.10
2022-10-11T13:45:42.262Z,92.90
2022-10-11T13:50:52.060Z,93.50
2022-10-11T13:56:00.210Z,94.30
2022-10-11T14:01:05.319Z,93.50
2022-10-11T14:06:07.755Z,93.20
2022-10-11T14:11:12.384Z,93.50
2022-10-11T14:16:20.276Z,92.70
2022-10-11T14:21:47.944Z,92.60
2022-10-11T14:26:52.785Z,92.50
2022-10-11T14:32:08.384Z,92.90
2022-10-11T14:37:13.339Z,93.00
2022-10-11T14:42:15.653Z,93.60
2022-10-11T14:47:18.381Z,93.50
2022-10-11T14:52:20.279Z,93.90
2022-10-11T14:57:22.167Z,93.80
2022-10-11T15:02:23.909Z,94.20
2022-10-11T15:07:25.683Z,93.90
2022-10-11T15:12:27.438Z,94.00
2022-10-11T15:17:29.219Z,94.70
2022-10-11T15:22:30.998Z,94.10
2022-10-11T15:27:32.757Z,94.30
2022-10-11T15:32:34.509Z,94.60
2022-10-11T15:37:37.480Z,93.90
2022-10-11T15:42:39.431Z,94.20
2022-10-11T15:47:41.424Z,94.20
2022-10-11T15:52:43.170Z,95.00
2022-10-11T15:57:44.969Z,95.00
2022-10-11T16:02:46.716Z,95.70
2022-10-11T16:07:48.652Z,95.80
2022-10-11T16:12:50.519Z,96.30
2022-10-11T16:17:52.283Z,96.60
2022-10-11T16:22:54.648Z,97.40
2022-10-11T16:27:56.416Z,97.90
2022-10-11T16:32:58.619Z,98.30
2022-10-11T16:38:01.193Z,99.60
2022-10-11T16:43:07.424Z,99.90
2022-10-11T16:48:09.781Z,99.90
2022-10-11T16:53:12.415Z,99.90
2022-10-11T16:58:14.254Z,99.90
2022-10-11T17:03:16.066Z,99.90
2022-10-11T17:08:17.804Z,99.90
2022-10-11T17:13:19.659Z,99.90
2022-10-11T17:18:21.558Z,99.90
2022-10-11T17:23:23.303Z,99.90
2022-10-11T17:28:26.239Z,99.90
2022-10-11T17:33:28.691Z,99.90
2022-10-11T17:38:30.703Z,99.90
2022-10-11T17:43:32.462Z,99.90
2022-10-11T17:48:36.717Z,99.90
2022-10-11T17:53:38.487Z,99.90
2022-10-11T17:58:41.279Z,99.90
2022-10-11T18:03:43.714Z,99.90
2022-10-11T18:08:45.469Z,99.90
2022-10-11T18:13:52.522Z,99.90
2022-10-11T18:18:54.925Z,99.90
2022-10-11T18:24:00.371Z,99.90
2022-10-11T18:29:02.391Z,99.90
2022-10-11T18:34:05.017Z,99.90
2022-10-11T18:39:08.469Z,99.90
2022-10-11T18:44:14.088Z,99.90
2022-10-11T18:49:15.904Z,99.90
2022-10-11T18:54:20.948Z,99.90
2022-10-11T18:59:23.266Z,99.90
2022-10-11T19:04:25.040Z,99.90
2022-10-11T19:09:28.267Z,99.90
2022-10-11T19:14:30.367Z,99.90
2022-10-11T19:19:35.480Z,99.90
2022-10-11T19:24:37.225Z,99.90
2022-10-11T19:29:39.090Z,99.90
2022-10-11T19:34:40.835Z,99.90
2022-10-11T19:39:42.706Z,99.90
2022-10-11T19:44:44.467Z,99.90
2022-10-11T19:49:46.183Z,99.90
2022-10-11T19:54:47.914Z,99.90
2022-10-11T19:59:49.646Z,99.90
2022-10-11T20:04:52.730Z,99.90
2022-10-11T20:09:54.874Z,99.90
2022-10-11T20:14:56.644Z,99.90
2022-10-11T20:19:58.375Z,99.90
2022-10-11T20:25:00.128Z,99.90
2022-10-11T20:30:01.997Z,99.90
2022-10-11T20:35:03.955Z,99.90
2022-10-11T20:40:06.244Z,99.90
2022-10-11T20:45:08.360Z,99.90
2022-10-11T20:50:10.103Z,99.90
2022-10-11T20:55:11.847Z,99.90
2022-10-11T21:00:14.087Z,99.90
2022-10-11T21:05:15.901Z,99.90
2022-10-11T21:10:17.643Z,99.90
2022-10-11T21:15:19.391Z,99.90
2022-10-11T21:20:21.172Z,99.90
2022-10-11T21:25:22.896Z,99.90
2022-10-11T21:30:24.823Z,99.90
2022-10-11T21:35:27.720Z,99.90
2022-10-11T21:40:29.465Z,99.90
2022-10-11T21:45:31.314Z,99.90
2022-10-11T21:50:33.576Z,99.90
2022-10-11T21:55:35.339Z,99.90
2022-10-11T22:00:37.443Z,99.90
2022-10-11T22:05:46.597Z,99.90
2022-10-11T22:10:56.897Z,99.90
2022-10-11T22:16:03.529Z,99.90
2022-10-11T22:21:15.868Z,99.90
2022-10-11T22:26:23.296Z,99.90
2022-10-11T22:31:25.057Z,99.90
2022-10-11T22:36:28.517Z,99.90
2022-10-11T22:41:30.244Z,99.90
2022-10-11T22:46:32.002Z,99.90
2022-10-11T22:51:33.790Z,99.90
2022-10-11T22:56:35.512Z,99.90
2022-10-11T23:01:37.246Z,99.90
2022-10-11T23:06:39.055Z,99.90
2022-10-11T23:11:40.816Z,99.90
2022-10-11T23:16:42.550Z,99.90
2022-10-11T23:21:44.519Z,99.90
2022-10-11T23:26:46.282Z,99.90
2022-10-11T23:31:48.040Z,99.90
2022-10-11T23:36:49.899Z,99.90
2022-10-11T23:41:51.629Z,99.90
2022-10-11T23:46:53.490Z,99.90
2022-10-11T23:51:55.228Z,99.90
2022-10-11T23:56:57.107Z,99.90
